Time;durP1;ratioP1;P1;durP2;ratioP2;P2;SDS_P1;SDS_P2;PMS_P1;PMS_P2;Temp;Humidity;BMP_temperature;BMP_pressure;BME280_temperature;BME280_humidity;BME280_pressure;Samples;Min_cycle;Max_cycle;Signal;HPM_P1;HPM_P2
2022/07/06 00:01:21;;;;;;;;;;;;;;;17.50;57.19;100716.72;5089660;28;19920;-76
2022/07/06 00:03:46;;;;;;;;;;;;;;;17.49;57.23;100723.34;5090434;28;19916;-88
2022/07/06 00:06:11;;;;;;;;;;;;;;;17.35;57.96;100725.94;5090468;28;19927;-88
2022/07/06 00:08:37;;;;;;;;;;;;;;;17.38;57.10;100725.38;5091244;28;19983;-80
2022/07/06 00:11:02;;;;;;;;;;;;;;;17.31;57.08;100730.38;5089670;28;19922;-80
2022/07/06 00:13:28;;;;;;;;;;;;;;;16.95;57.59;100731.41;5071734;28;19927;-80
2022/07/06 00:15:53;;;;;;;;;;;;;;;16.99;57.70;100729.72;5085768;28;20174;-80
2022/07/06 00:18:18;;;;;;;;;;;;;;;16.87;57.63;100730.91;5089055;28;20291;-75
2022/07/06 00:20:43;;;;;;;;;;;;;;;17.01;57.03;100733.03;5089176;28;20212;-74
2022/07/06 00:23:09;;;;;;;;;;;;;;;17.23;56.69;100738.13;5089742;28;19951;-84
2022/07/06 00:25:34;;;;;;;;;;;;;;;17.14;56.52;100734.34;5084855;28;20007;-84
2022/07/06 00:27:59;;;;;;;;;;;;;;;17.27;56.13;100732.88;5070788;28;20282;-77
2022/07/06 00:30:24;;;;;;;;;;;;;;;17.13;56.20;100740.97;5068938;28;20265;-79
2022/07/06 00:32:49;;;;;;;;;;;;;;;17.14;56.52;100731.59;5068896;28;19928;-85
2022/07/06 00:35:15;;;;;;;;;;;;;;;17.15;56.27;100731.31;5078749;28;19928;-84
2022/07/06 00:37:40;;;;;;;;;;;;;;;17.08;56.53;100728.03;5070129;28;19921;-85
2022/07/06 00:40:05;;;;;;;;;;;;;;;17.06;56.72;100732.16;5070081;28;19917;-84
2022/07/06 00:42:38;;;;;;;;;;;;;;;17.03;56.93;100733.56;5069684;28;20423;-85
2022/07/06 00:45:03;;;;;;;;;;;;;;;17.08;56.40;100730.78;5069448;28;19917;-85
2022/07/06 00:47:29;;;;;;;;;;;;;;;16.78;57.19;100738.13;5089846;28;19965;-85
2022/07/06 00:52:38;;;;;;;;;;;;;;;17.00;56.57;100731.38;5089104;28;20072;-74
2022/07/06 00:55:03;;;;;;;;;;;;;;;17.07;56.40;100734.63;5086148;28;20466;-75
2022/07/06 00:57:29;;;;;;;;;;;;;;;17.31;56.02;100733.16;5068205;28;20296;-75
2022/07/06 00:59:54;;;;;;;;;;;;;;;17.24;56.21;100739.81;5070205;28;19921;-88
2022/07/06 01:02:22;;;;;;;;;;;;;;;17.03;56.87;100736.31;5070305;28;19916;-84
2022/07/06 01:04:47;;;;;;;;;;;;;;;16.82;57.37;100732.88;5079368;28;19923;-83
2022/07/06 01:07:12;;;;;;;;;;;;;;;16.71;57.42;100737.59;5068509;28;19920;-77
2022/07/06 01:09:38;;;;;;;;;;;;;;;16.36;58.61;100742.94;5068435;28;20284;-77
2022/07/06 01:12:03;;;;;;;;;;;;;;;16.25;58.39;100737.47;5068644;28;19970;-76
2022/07/06 01:14:28;;;;;;;;;;;;;;;16.24;58.65;100748.75;5068155;28;20299;-76
2022/07/06 01:16:54;;;;;;;;;;;;;;;16.23;58.68;100753.47;5083114;28;19920;-84
2022/07/06 01:19:19;;;;;;;;;;;;;;;16.02;59.24;100755.41;5089904;28;20544;-84
2022/07/06 01:21:44;;;;;;;;;;;;;;;16.19;58.32;100744.91;5088821;28;19961;-77
2022/07/06 01:24:09;;;;;;;;;;;;;;;16.16;58.56;100745.50;5088414;28;19916;-77
2022/07/06 01:26:34;;;;;;;;;;;;;;;16.29;57.81;100738.56;5074315;28;20015;-85
2022/07/06 01:29:00;;;;;;;;;;;;;;;16.27;57.89;100743.53;5069314;28;19992;-84
2022/07/06 01:31:25;;;;;;;;;;;;;;;16.18;57.79;100737.78;5068676;28;19916;-77
2022/07/06 01:33:51;;;;;;;;;;;;;;;16.00;58.65;100741.91;5068716;28;19916;-76
2022/07/06 01:42:22;;;;;;;;;;;;;;;16.35;57.10;100728.38;5092208;28;19994;-80
2022/07/06 01:44:47;;;;;;;;;;;;;;;16.31;57.20;100730.06;5109257;28;20398;-80
2022/07/06 01:47:12;;;;;;;;;;;;;;;16.53;56.52;100731.63;5069743;28;19920;-83
2022/07/06 01:49:38;;;;;;;;;;;;;;;16.48;56.94;100724.19;5069852;28;20267;-83
2022/07/06 01:52:03;;;;;;;;;;;;;;;16.33;56.98;100722.34;5069285;28;19925;-77
2022/07/06 01:54:28;;;;;;;;;;;;;;;16.41;56.95;100718.19;5068596;28;19968;-77
2022/07/06 01:56:53;;;;;;;;;;;;;;;16.40;57.09;100717.34;5080812;28;19931;-88
2022/07/06 01:59:19;;;;;;;;;;;;;;;16.44;57.05;100723.09;5090278;28;19961;-88
2022/07/06 02:01:44;;;;;;;;;;;;;;;16.31;57.11;100719.03;5092396;28;20014;-76
2022/07/06 02:04:09;;;;;;;;;;;;;;;16.49;56.71;100725.03;5092742;28;19922;-76
2022/07/06 02:06:34;;;;;;;;;;;;;;;16.25;57.47;100723.72;5078606;28;20299;-77
2022/07/06 02:08:59;;;;;;;;;;;;;;;15.98;58.46;100728.44;5072424;28;19922;-77
2022/07/06 02:11:24;;;;;;;;;;;;;;;15.99;58.40;100729.25;5075307;28;20433;-84
2022/07/06 02:13:50;;;;;;;;;;;;;;;16.17;58.08;100735.31;5094070;28;19923;-83
2022/07/06 02:16:15;;;;;;;;;;;;;;;15.79;59.31;100730.13;5085417;28;19921;-83
2022/07/06 02:18:40;;;;;;;;;;;;;;;15.60;60.15;100738.94;5072678;28;19920;-84
2022/07/06 02:21:05;;;;;;;;;;;;;;;15.65;59.67;100733.44;5073871;28;19923;-76
2022/07/06 02:23:31;;;;;;;;;;;;;;;15.68;59.62;100740.31;5071990;28;19926;-76
2022/07/06 02:25:56;;;;;;;;;;;;;;;15.86;59.20;100738.91;5070692;28;19920;-80
2022/07/06 02:28:21;;;;;;;;;;;;;;;15.80;59.65;100740.03;5072514;28;20001;-77
2022/07/06 02:30:46;;;;;;;;;;;;;;;15.59;60.17;100737.28;5071904;28;19921;-77
2022/07/06 02:33:11;;;;;;;;;;;;;;;15.44;60.61;100746.34;5071839;28;19920;-74
2022/07/06 02:35:41;;;;;;;;;;;;;;;15.42;60.90;100738.38;5073246;28;19996;-74
2022/07/06 02:38:07;;;;;;;;;;;;;;;15.53;60.49;100733.72;5071511;28;19923;-74
2022/07/06 02:40:32;;;;;;;;;;;;;;;15.57;60.63;100734.81;5071495;28;19920;-74
2022/07/06 02:42:57;;;;;;;;;;;;;;;15.74;60.10;100733.72;5087248;28;19916;-76
2022/07/06 02:45:22;;;;;;;;;;;;;;;15.81;59.60;100722.41;5086435;28;19982;-76
2022/07/06 02:47:47;;;;;;;;;;;;;;;15.51;60.59;100731.25;5071354;28;19921;-75
2022/07/06 02:50:12;;;;;;;;;;;;;;;15.59;60.51;100729.88;5071046;28;19920;-76
2022/07/06 02:52:38;;;;;;;;;;;;;;;15.52;61.06;100729.28;5071100;28;19943;-80
2022/07/06 02:55:03;;;;;;;;;;;;;;;15.47;60.93;100735.63;5071478;28;19920;-80
2022/07/06 02:57:28;;;;;;;;;;;;;;;15.31;61.54;100737.56;5070196;28;19925;-75
2022/07/06 02:59:53;;;;;;;;;;;;;;;15.17;62.03;100737.25;5070890;28;19932;-74
2022/07/06 03:02:18;;;;;;;;;;;;;;;15.38;61.75;100748.25;5071070;28;19985;-77
2022/07/06 03:04:44;;;;;;;;;;;;;;;15.13;62.31;100747.13;5071332;28;20010;-77
2022/07/06 03:07:09;;;;;;;;;;;;;;;14.89;62.71;100742.13;5069479;28;20024;-79
2022/07/06 03:09:34;;;;;;;;;;;;;;;14.74;63.59;100738.22;5070610;28;20015;-79
2022/07/06 03:11:59;;;;;;;;;;;;;;;15.10;62.30;100742.16;5081075;28;20019;-77
2022/07/06 03:14:25;;;;;;;;;;;;;;;15.24;62.14;100747.97;5091225;28;20023;-77
2022/07/06 03:16:50;;;;;;;;;;;;;;;15.11;62.29;100743.84;5076552;28;20364;-87
2022/07/06 03:19:16;;;;;;;;;;;;;;;14.68;63.97;100753.00;5072191;28;19920;-87
2022/07/06 03:21:41;;;;;;;;;;;;;;;15.00;62.94;100760.28;5072066;28;19920;-80
2022/07/06 03:24:06;;;;;;;;;;;;;;;14.91;63.12;100764.63;5070882;28;19921;-80
2022/07/06 03:26:31;;;;;;;;;;;;;;;14.44;64.50;100758.94;5069406;28;19971;-78
2022/07/06 03:28:56;;;;;;;;;;;;;;;14.58;64.23;100764.78;5070511;28;19920;-77
2022/07/06 03:31:21;;;;;;;;;;;;;;;14.86;63.04;100764.63;5070673;28;20290;-77
2022/07/06 03:33:47;;;;;;;;;;;;;;;14.56;63.93;100761.47;5069549;28;20283;-74
2022/07/06 03:36:12;;;;;;;;;;;;;;;14.64;64.28;100751.91;5071502;28;19928;-75
2022/07/06 03:38:37;;;;;;;;;;;;;;;14.65;63.92;100754.38;5070115;28;20024;-77
2022/07/06 03:41:03;;;;;;;;;;;;;;;14.53;64.23;100757.34;5070627;28;20134;-76
2022/07/06 03:43:28;;;;;;;;;;;;;;;14.44;64.55;100751.53;5073359;28;19923;-76
2022/07/06 03:45:53;;;;;;;;;;;;;;;14.23;65.45;100756.09;5068842;28;19973;-76
2022/07/06 03:48:18;;;;;;;;;;;;;;;14.04;66.10;100755.69;5070058;28;19917;-80
2022/07/06 03:50:44;;;;;;;;;;;;;;;14.23;65.87;100747.84;5070705;28;19920;-80
2022/07/06 03:53:09;;;;;;;;;;;;;;;14.11;66.10;100748.06;5071415;28;19967;-88
2022/07/06 03:55:34;;;;;;;;;;;;;;;14.46;64.75;100745.78;5073006;28;19924;-87
2022/07/06 03:57:59;;;;;;;;;;;;;;;14.55;64.22;100754.31;5070855;28;19923;-77
2022/07/06 04:00:25;;;;;;;;;;;;;;;14.93;63.21;100752.28;5069291;28;19916;-77
2022/07/06 04:02:50;;;;;;;;;;;;;;;14.74;63.85;100748.38;5070003;28;20062;-76
2022/07/06 04:05:17;;;;;;;;;;;;;;;14.55;64.62;100755.16;5068175;28;19969;-76
2022/07/06 04:07:42;;;;;;;;;;;;;;;14.82;63.60;100762.41;5071483;28;19924;-84
2022/07/06 04:10:08;;;;;;;;;;;;;;;14.44;64.82;100753.47;5070920;28;19969;-83
2022/07/06 04:12:39;;;;;;;;;;;;;;;14.64;64.22;100754.63;5096531;28;19916;-76
2022/07/06 04:15:04;;;;;;;;;;;;;;;14.36;64.98;100758.34;5105620;28;20386;-76
2022/07/06 04:20:13;;;;;;;;;;;;;;;14.68;64.42;100764.81;5069585;28;20276;-77
2022/07/06 04:22:39;;;;;;;;;;;;;;;14.36;65.44;100763.81;5069054;28;19916;-74
2022/07/06 04:25:05;;;;;;;;;;;;;;;14.47;65.64;100770.22;5068061;28;19916;-74
2022/07/06 04:27:30;;;;;;;;;;;;;;;14.61;64.67;100768.88;5069883;28;19917;-84
2022/07/06 04:29:55;;;;;;;;;;;;;;;14.53;64.78;100764.72;5071093;28;19924;-84
2022/07/06 04:32:20;;;;;;;;;;;;;;;14.61;65.05;100768.88;5070396;28;19924;-84
2022/07/06 04:34:45;;;;;;;;;;;;;;;14.49;65.39;100767.19;5070601;28;19917;-83
2022/07/06 04:37:10;;;;;;;;;;;;;;;14.43;65.80;100760.03;5109234;28;20439;-80
2022/07/06 04:39:36;;;;;;;;;;;;;;;14.36;66.03;100763.81;5109826;28;19916;-80
2022/07/06 04:42:01;;;;;;;;;;;;;;;14.48;65.77;100768.28;5100616;28;20350;-80
2022/07/06 04:44:26;;;;;;;;;;;;;;;14.57;65.82;100758.44;5081350;28;19920;-80
2022/07/06 04:46:51;;;;;;;;;;;;;;;14.32;67.01;100759.16;5082467;28;19928;-76
2022/07/06 04:49:16;;;;;;;;;;;;;;;14.55;66.04;100766.13;5089025;28;20019;-76
2022/07/06 04:51:41;;;;;;;;;;;;;;;14.70;65.60;100759.06;5089224;28;20210;-78
2022/07/06 04:54:07;;;;;;;;;;;;;;;14.79;65.75;100765.66;5088893;28;19975;-77
2022/07/06 04:56:32;;;;;;;;;;;;;;;14.74;65.83;100762.91;5088075;28;20322;-76
2022/07/06 04:58:57;;;;;;;;;;;;;;;14.87;65.24;100766.28;5070298;28;19923;-77
2022/07/06 05:01:22;;;;;;;;;;;;;;;14.68;65.93;100769.47;5088780;28;20357;-78
2022/07/06 05:03:47;;;;;;;;;;;;;;;14.57;66.75;100768.59;5088633;28;19923;-74
2022/07/06 05:06:12;;;;;;;;;;;;;;;14.76;66.10;100766.22;5076511;28;20315;-74
2022/07/06 05:08:38;;;;;;;;;;;;;;;14.90;66.27;100766.56;5068103;28;19962;-76
2022/07/06 05:11:03;;;;;;;;;;;;;;;15.00;65.83;100767.69;5068314;28;19920;-76
2022/07/06 05:13:28;;;;;;;;;;;;;;;15.17;65.06;100762.78;5089680;28;19969;-86
2022/07/06 05:15:53;;;;;;;;;;;;;;;14.77;65.79;100759.63;5089528;28;19920;-87
2022/07/06 05:18:19;;;;;;;;;;;;;;;14.92;65.49;100769.03;5088393;28;19973;-74
2022/07/06 05:20:44;;;;;;;;;;;;;;;15.03;65.34;100765.22;5088773;28;19917;-74
2022/07/06 05:23:09;;;;;;;;;;;;;;;15.38;64.96;100772.97;5088574;28;20060;-80
2022/07/06 05:25:35;;;;;;;;;;;;;;;15.24;64.65;100770.75;5081680;28;20447;-80
2022/07/06 05:28:00;;;;;;;;;;;;;;;15.41;64.65;100775.19;5068073;28;20333;-77
2022/07/06 05:30:26;;;;;;;;;;;;;;;15.29;64.95;100773.50;5068139;28;19920;-77
2022/07/06 05:32:51;;;;;;;;;;;;;;;15.52;64.44;100773.25;5068469;28;19918;-77
2022/07/06 05:35:16;;;;;;;;;;;;;;;15.39;64.73;100772.72;5069698;28;20303;-77
2022/07/06 05:37:42;;;;;;;;;;;;;;;15.44;64.52;100763.66;5072710;28;19920;-74
2022/07/06 05:40:07;;;;;;;;;;;;;;;15.57;64.26;100766.97;5072329;28;20420;-74
2022/07/06 05:42:32;;;;;;;;;;;;;;;15.68;64.12;100776.84;5067186;28;20356;-83
2022/07/06 05:44:57;;;;;;;;;;;;;;;15.94;63.36;100771.34;5081237;28;19916;-83
2022/07/06 05:50:12;;;;;;;;;;;;;;;15.82;63.46;100776.31;5114385;28;20381;-84
2022/07/06 05:52:44;;;;;;;;;;;;;;;16.15;62.74;100778.78;5113924;28;19989;-80
2022/07/06 05:55:10;;;;;;;;;;;;;;;15.75;63.67;100782.91;5107566;28;20389;-81
2022/07/06 05:57:35;;;;;;;;;;;;;;;15.78;63.80;100784.28;5072466;28;19916;-84
2022/07/06 06:00:00;;;;;;;;;;;;;;;15.84;63.51;100791.44;5073289;28;19965;-84
2022/07/06 06:02:26;;;;;;;;;;;;;;;15.71;63.95;100781.81;5072968;28;20207;-87
2022/07/06 06:04:51;;;;;;;;;;;;;;;15.83;63.80;100792.53;5072932;28;20015;-85
2022/07/06 06:07:16;;;;;;;;;;;;;;;15.99;63.49;100779.59;5072580;28;19916;-78
2022/07/06 06:09:41;;;;;;;;;;;;;;;16.09;63.41;100788.94;5071758;28;19927;-77
2022/07/06 06:12:07;;;;;;;;;;;;;;;16.27;62.78;100790.28;5080760;28;19920;-86
2022/07/06 06:14:32;;;;;;;;;;;;;;;16.16;63.30;100792.25;5093420;28;19959;-86
2022/07/06 06:16:57;;;;;;;;;;;;;;;16.29;62.55;100787.28;5104203;28;19932;-80
2022/07/06 06:19:22;;;;;;;;;;;;;;;16.57;61.61;100790.50;5111934;28;19924;-80
2022/07/06 06:21:48;;;;;;;;;;;;;;;16.74;61.34;100792.09;5112189;28;20002;-77
2022/07/06 06:24:13;;;;;;;;;;;;;;;16.52;61.12;100798.75;5111560;28;19923;-76
2022/07/06 06:26:38;;;;;;;;;;;;;;;16.35;61.88;100808.19;5081354;28;20360;-81
2022/07/06 06:29:03;;;;;;;;;;;;;;;16.68;61.02;100805.88;5071130;28;20011;-81
2022/07/06 06:31:28;;;;;;;;;;;;;;;16.74;60.68;100797.63;5071116;28;19920;-78
2022/07/06 06:33:54;;;;;;;;;;;;;;;16.85;60.53;100788.19;5070806;28;19917;-78
2022/07/06 06:36:19;;;;;;;;;;;;;;;17.07;59.95;100795.25;5070445;28;19982;-79
2022/07/06 06:38:44;;;;;;;;;;;;;;;17.25;59.08;100790.19;5070586;28;19920;-77
2022/07/06 06:41:09;;;;;;;;;;;;;;;17.03;59.61;100788.66;5072083;28;19917;-77
2022/07/06 06:43:34;;;;;;;;;;;;;;;17.29;58.72;100796.78;5090073;28;19916;-76
2022/07/06 06:45:59;;;;;;;;;;;;;;;17.13;58.78;100794.13;5079569;28;19920;-76
2022/07/06 06:48:25;;;;;;;;;;;;;;;17.34;58.33;100791.25;5090437;28;19916;-75
2022/07/06 06:50:50;;;;;;;;;;;;;;;17.59;57.45;100797.69;5091172;28;19966;-75
2022/07/06 06:53:15;;;;;;;;;;;;;;;17.60;57.53;100796.59;5091108;28;19965;-78
2022/07/06 06:55:40;;;;;;;;;;;;;;;17.76;57.63;100788.19;5083665;28;19924;-77
2022/07/06 06:58:06;;;;;;;;;;;;;;;17.25;58.22;100798.47;5070725;28;19917;-80
2022/07/06 07:00:31;;;;;;;;;;;;;;;17.49;57.60;100795.03;5071050;28;20061;-80
2022/07/06 07:02:56;;;;;;;;;;;;;;;17.42;57.13;100789.00;5070933;28;20035;-76
2022/07/06 07:05:21;;;;;;;;;;;;;;;17.59;57.41;100792.16;5070263;28;20406;-76
2022/07/06 07:07:46;;;;;;;;;;;;;;;17.75;56.60;100792.06;5070446;28;19920;-77
2022/07/06 07:10:12;;;;;;;;;;;;;;;17.74;56.51;100796.75;5070971;28;19928;-76
2022/07/06 07:12:46;;;;;;;;;;;;;;;18.12;55.60;100798.09;5085709;28;20356;-87
2022/07/06 07:15:12;;;;;;;;;;;;;;;17.97;54.45;100799.88;5092643;28;19931;-87
2022/07/06 07:17:37;;;;;;;;;;;;;;;17.87;54.13;100799.97;5071616;28;20367;-76
2022/07/06 07:20:03;;;;;;;;;;;;;;;18.23;53.41;100806.28;5070477;28;19932;-77
2022/07/06 07:22:28;;;;;;;;;;;;;;;18.50;53.46;100808.47;5070064;28;19917;-78
2022/07/06 07:24:54;;;;;;;;;;;;;;;18.52;53.20;100805.41;5069992;28;20410;-77
2022/07/06 07:27:19;;;;;;;;;;;;;;;18.43;53.07;100805.22;5070522;28;19927;-87
2022/07/06 07:29:44;;;;;;;;;;;;;;;18.44;52.52;100809.66;5072252;28;20402;-86
2022/07/06 07:32:09;;;;;;;;;;;;;;;18.57;52.10;100815.59;5071431;28;19916;-75
2022/07/06 07:34:34;;;;;;;;;;;;;;;18.38;52.31;100819.09;5069758;28;19939;-75
2022/07/06 07:36:59;;;;;;;;;;;;;;;18.49;51.68;100815.09;5068985;28;19986;-79
2022/07/06 07:39:25;;;;;;;;;;;;;;;18.17;53.02;100822.06;5069705;28;20137;-77
2022/07/06 07:41:50;;;;;;;;;;;;;;;18.05;53.04;100823.25;5077049;28;20405;-74
2022/07/06 07:44:15;;;;;;;;;;;;;;;18.48;52.02;100813.47;5084027;28;19917;-75
2022/07/06 07:46:40;;;;;;;;;;;;;;;18.60;51.49;100812.22;5082000;28;19942;-84
2022/07/06 07:49:06;;;;;;;;;;;;;;;18.73;51.61;100806.00;5091550;28;20169;-84
2022/07/06 07:51:31;;;;;;;;;;;;;;;18.73;51.96;100819.78;5091122;28;19920;-85
2022/07/06 07:53:56;;;;;;;;;;;;;;;18.54;51.80;100817.81;5090722;28;19920;-85
2022/07/06 07:56:22;;;;;;;;;;;;;;;18.65;51.94;100809.44;5077440;28;19924;-79
2022/07/06 07:58:48;;;;;;;;;;;;;;;18.98;51.61;100811.47;5067970;28;20208;-78
2022/07/06 08:01:13;;;;;;;;;;;;;;;18.87;50.78;100816.34;5069126;28;19924;-78
2022/07/06 08:03:38;;;;;;;;;;;;;;;18.66;50.89;100813.81;5069057;28;20327;-76
2022/07/06 08:06:04;;;;;;;;;;;;;;;18.88;50.46;100823.50;5068729;28;19932;-76
2022/07/06 08:08:29;;;;;;;;;;;;;;;18.66;49.95;100819.34;5069147;28;20299;-76
2022/07/06 08:10:54;;;;;;;;;;;;;;;18.53;49.84;100810.66;5069206;28;19938;-76
2022/07/06 08:13:19;;;;;;;;;;;;;;;18.69;49.12;100817.94;5090568;28;20298;-83
2022/07/06 08:15:44;;;;;;;;;;;;;;;18.98;48.79;100814.25;5091106;28;19919;-84
2022/07/06 08:18:09;;;;;;;;;;;;;;;19.06;48.97;100821.06;5089659;28;19927;-78
2022/07/06 08:20:35;;;;;;;;;;;;;;;19.08;48.98;100819.66;5089684;28;19920;-78
2022/07/06 08:23:00;;;;;;;;;;;;;;;19.00;48.93;100814.78;5090294;28;19989;-87
2022/07/06 08:25:26;;;;;;;;;;;;;;;18.94;48.84;100819.56;5090845;28;19920;-87
2022/07/06 08:27:51;;;;;;;;;;;;;;;18.81;49.65;100821.09;5090501;28;20344;-86
2022/07/06 08:30:16;;;;;;;;;;;;;;;18.87;49.67;100816.34;5090287;28;20485;-86
2022/07/06 08:32:42;;;;;;;;;;;;;;;19.15;48.52;100807.44;5089811;28;19920;-78
2022/07/06 08:35:08;;;;;;;;;;;;;;;19.36;48.65;100803.25;5088218;28;20064;-77
2022/07/06 08:37:33;;;;;;;;;;;;;;;19.35;47.61;100806.31;5088848;28;19916;-78
2022/07/06 08:39:58;;;;;;;;;;;;;;;19.34;48.28;100805.47;5070261;28;19916;-78
2022/07/06 08:42:29;;;;;;;;;;;;;;;19.40;48.85;100799.91;5089120;28;20329;-78
2022/07/06 08:44:54;;;;;;;;;;;;;;;19.41;48.22;100799.59;5076975;28;19917;-78
2022/07/06 08:47:20;;;;;;;;;;;;;;;19.51;48.03;100797.78;5086771;28;20040;-80
2022/07/06 08:49:45;;;;;;;;;;;;;;;19.30;47.08;100798.13;5089113;28;19942;-80
2022/07/06 08:52:11;;;;;;;;;;;;;;;19.08;48.64;100793.97;5089092;28;19916;-80
2022/07/06 08:54:37;;;;;;;;;;;;;;;19.48;48.38;100808.34;5089193;28;19916;-80
2022/07/06 08:57:03;;;;;;;;;;;;;;;19.20;47.88;100804.63;5069792;28;20011;-75
2022/07/06 08:59:28;;;;;;;;;;;;;;;19.31;47.38;100806.09;5068096;28;20364;-75
2022/07/06 09:01:54;;;;;;;;;;;;;;;19.14;46.85;100812.13;5068457;28;19929;-78
2022/07/06 09:04:21;;;;;;;;;;;;;;;19.43;47.25;100815.88;5068221;28;19916;-78
2022/07/06 09:06:47;;;;;;;;;;;;;;;19.42;47.39;100806.78;5067570;28;19990;-80
2022/07/06 09:09:16;;;;;;;;;;;;;;;19.43;47.21;100813.94;5067901;28;19921;-80
2022/07/06 09:11:41;;;;;;;;;;;;;;;19.62;46.70;100815.88;5074905;28;19920;-84
2022/07/06 09:14:06;;;;;;;;;;;;;;;19.45;47.61;100817.22;5089907;28;19973;-84
2022/07/06 09:16:32;;;;;;;;;;;;;;;19.65;46.67;100818.03;5087156;28;19924;-84
2022/07/06 09:18:57;;;;;;;;;;;;;;;19.59;47.29;100816.47;5089009;28;19924;-84
2022/07/06 09:21:25;;;;;;;;;;;;;;;19.55;45.83;100813.47;5089061;28;22221;-85
2022/07/06 09:23:55;;;;;;;;;;;;;;;19.74;45.09;100809.03;5089865;28;20440;-86
2022/07/06 09:26:20;;;;;;;;;;;;;;;19.49;44.91;100814.69;5076807;28;19921;-86
2022/07/06 09:28:45;;;;;;;;;;;;;;;19.47;45.64;100805.84;5070054;28;19961;-86
2022/07/06 09:31:11;;;;;;;;;;;;;;;19.80;45.22;100808.66;5069433;28;20364;-86
2022/07/06 09:33:36;;;;;;;;;;;;;;;19.87;45.30;100810.22;5069441;28;19942;-84
2022/07/06 09:36:02;;;;;;;;;;;;;;;19.97;45.02;100810.06;5078759;28;20006;-84
2022/07/06 09:38:28;;;;;;;;;;;;;;;20.17;45.14;100808.06;5087849;28;19931;-75
2022/07/06 09:40:53;;;;;;;;;;;;;;;20.21;43.34;100808.28;5087385;28;19959;-75
2022/07/06 09:43:19;;;;;;;;;;;;;;;20.65;42.67;100801.31;5087533;28;20011;-77
2022/07/06 09:45:45;;;;;;;;;;;;;;;21.09;41.61;100786.31;5073736;28;19952;-76
2022/07/06 09:48:17;;;;;;;;;;;;;;;21.27;41.08;100795.63;5069623;28;20280;-78
2022/07/06 09:50:43;;;;;;;;;;;;;;;21.41;41.50;100794.75;5087959;28;19973;-78
2022/07/06 09:53:09;;;;;;;;;;;;;;;21.40;40.00;100791.13;5087479;28;20104;-77
2022/07/06 09:55:34;;;;;;;;;;;;;;;21.18;41.43;100808.56;5081156;28;20148;-77
2022/07/06 09:57:59;;;;;;;;;;;;;;;20.95;42.28;100802.94;5068058;28;19916;-85
2022/07/06 10:00:24;;;;;;;;;;;;;;;20.38;43.15;100811.25;5069097;28;20372;-85
2022/07/06 10:02:50;;;;;;;;;;;;;;;20.20;42.20;100801.09;5051911;28;20072;-84
2022/07/06 10:05:17;;;;;;;;;;;;;;;20.50;42.06;100809.94;5050434;28;20398;-84
2022/07/06 10:07:43;;;;;;;;;;;;;;;20.79;41.61;100806.03;5068616;28;19927;-78
2022/07/06 10:10:08;;;;;;;;;;;;;;;20.74;41.18;100806.16;5067315;28;20342;-79
2022/07/06 10:12:34;;;;;;;;;;;;;;;20.82;41.54;100802.66;5078733;28;20224;-87
2022/07/06 10:14:59;;;;;;;;;;;;;;;20.99;41.31;100798.47;5075664;28;19927;-87
2022/07/06 10:17:25;;;;;;;;;;;;;;;20.86;41.42;100800.91;5071457;28;19916;-78
2022/07/06 10:19:50;;;;;;;;;;;;;;;21.70;40.32;100790.72;5067031;28;20291;-79
2022/07/06 10:22:17;;;;;;;;;;;;;;;21.60;40.43;100793.75;5074475;28;20018;-87
2022/07/06 10:24:43;;;;;;;;;;;;;;;21.50;41.02;100797.59;5092991;28;20500;-87
2022/07/06 10:27:10;;;;;;;;;;;;;;;21.20;41.12;100798.81;5072528;28;20019;-75
2022/07/06 10:29:35;;;;;;;;;;;;;;;20.91;41.23;100810.25;5071196;28;19921;-75
2022/07/06 10:32:00;;;;;;;;;;;;;;;20.74;41.66;100804.19;5071030;28;20385;-80
2022/07/06 10:34:26;;;;;;;;;;;;;;;21.03;41.10;100809.75;5070887;28;19916;-80
2022/07/06 10:36:53;;;;;;;;;;;;;;;20.65;41.51;100812.41;5070277;28;20007;-85
2022/07/06 10:42:34;;;;;;;;;;;;;;;21.19;42.15;100799.13;5083122;28;19923;-84
2022/07/06 10:44:59;;;;;;;;;;;;;;;21.25;40.91;100799.81;5080559;28;19924;-83
2022/07/06 10:47:27;;;;;;;;;;;;;;;21.43;40.39;100793.28;5109742;28;19916;-80
2022/07/06 10:49:58;;;;;;;;;;;;;;;21.52;39.73;100793.34;5111357;28;19919;-80
2022/07/06 10:52:43;;;;;;;;;;;;;;;21.63;40.61;100793.09;5111520;28;20363;-80
2022/07/06 10:55:27;;;;;;;;;;;;;;;21.52;40.52;100792.53;5105125;28;20025;-80
2022/07/06 10:57:52;;;;;;;;;;;;;;;20.94;41.10;100804.06;5052968;28;19928;-80
2022/07/06 11:00:17;;;;;;;;;;;;;;;21.36;40.62;100786.56;5070636;28;19920;-80
2022/07/06 11:02:42;;;;;;;;;;;;;;;20.97;41.58;100795.97;5070792;28;19917;-76
2022/07/06 11:05:12;;;;;;;;;;;;;;;20.90;41.33;100801.09;5069641;28;19916;-76
2022/07/06 11:07:49;;;;;;;;;;;;;;;20.86;41.23;100800.06;5069822;28;19921;-75
2022/07/06 11:10:14;;;;;;;;;;;;;;;20.82;41.52;100801.81;5069604;28;19960;-74
2022/07/06 11:12:44;;;;;;;;;;;;;;;20.93;41.43;100802.44;5084513;28;19974;-79
2022/07/06 11:15:09;;;;;;;;;;;;;;;20.21;42.31;100786.97;5087185;28;19920;-78
2022/07/06 11:17:34;;;;;;;;;;;;;;;20.52;41.92;100791.09;5090219;28;20382;-80
2022/07/06 11:20:10;;;;;;;;;;;;;;;20.97;40.89;100789.63;5089965;28;19916;-80
2022/07/06 11:22:36;;;;;;;;;;;;;;;21.08;39.53;100790.22;5089902;28;19920;-76
2022/07/06 11:25:01;;;;;;;;;;;;;;;21.12;39.25;100780.13;5087890;28;19916;-76
2022/07/06 11:27:27;;;;;;;;;;;;;;;21.18;39.88;100789.16;5070402;28;19969;-85
2022/07/06 11:29:52;;;;;;;;;;;;;;;21.62;39.36;100783.94;5071121;28;19925;-84
2022/07/06 11:32:23;;;;;;;;;;;;;;;21.96;38.27;100778.16;5070261;28;20340;-80
2022/07/06 11:34:48;;;;;;;;;;;;;;;22.50;37.29;100775.28;5069741;28;19921;-80
2022/07/06 11:37:14;;;;;;;;;;;;;;;21.95;36.81;100774.56;5069738;28;20367;-87
2022/07/06 11:39:43;;;;;;;;;;;;;;;21.26;38.34;100769.00;5071327;28;20263;-87
2022/07/06 11:42:09;;;;;;;;;;;;;;;21.05;37.85;100772.25;5080697;28;19916;-75
2022/07/06 11:44:35;;;;;;;;;;;;;;;20.92;38.78;100776.66;5080531;28;20418;-75
2022/07/06 11:47:03;;;;;;;;;;;;;;;22.18;37.62;100774.50;5086872;28;19927;-76
2022/07/06 11:49:28;;;;;;;;;;;;;;;22.49;36.70;100784.78;5089533;28;20019;-76
2022/07/06 11:51:54;;;;;;;;;;;;;;;22.91;36.03;100764.13;5090105;28;20058;-87
2022/07/06 11:54:20;;;;;;;;;;;;;;;22.79;36.43;100769.50;5091436;28;20250;-87
2022/07/06 11:56:46;;;;;;;;;;;;;;;22.27;36.99;100771.78;5074647;28;19924;-85
2022/07/06 11:59:11;;;;;;;;;;;;;;;22.28;37.55;100770.63;5070934;28;19920;-85
2022/07/06 12:01:43;;;;;;;;;;;;;;;22.23;37.72;100776.34;5070593;28;20391;-75
2022/07/06 12:04:09;;;;;;;;;;;;;;;21.86;38.25;100779.25;5069208;28;19923;-75
2022/07/06 12:06:34;;;;;;;;;;;;;;;21.87;39.04;100780.88;5068985;28;19924;-81
2022/07/06 12:09:00;;;;;;;;;;;;;;;22.09;38.95;100779.22;5069310;28;19928;-80
2022/07/06 12:11:31;;;;;;;;;;;;;;;21.99;38.83;100783.88;5073826;28;19998;-78
2022/07/06 12:13:57;;;;;;;;;;;;;;;21.85;39.28;100777.59;5089541;28;19916;-77
2022/07/06 12:16:29;;;;;;;;;;;;;;;21.78;38.50;100776.06;5088937;28;20346;-88
2022/07/06 12:18:54;;;;;;;;;;;;;;;21.97;38.97;100774.25;5090476;28;19951;-87
2022/07/06 12:21:21;;;;;;;;;;;;;;;22.28;38.23;100759.53;5090906;28;20418;-87
2022/07/06 12:23:50;;;;;;;;;;;;;;;23.24;36.54;100762.84;5091408;28;19965;-87
2022/07/06 12:26:17;;;;;;;;;;;;;;;23.80;36.01;100758.53;5078601;28;19928;-87
2022/07/06 12:28:42;;;;;;;;;;;;;;;23.99;36.19;100752.59;5070501;28;20384;-88
2022/07/06 12:31:08;;;;;;;;;;;;;;;24.50;35.40;100748.28;5070523;28;20330;-87
2022/07/06 12:33:33;;;;;;;;;;;;;;;24.81;34.49;100741.53;5070484;28;19955;-87
2022/07/06 12:36:09;;;;;;;;;;;;;;;24.05;34.38;100739.28;5079174;28;19920;-87
2022/07/06 12:38:34;;;;;;;;;;;;;;;23.67;34.78;100741.72;5090813;28;19916;-85
2022/07/06 12:41:02;;;;;;;;;;;;;;;23.24;35.58;100729.47;5090367;28;20360;-85
2022/07/06 12:43:41;;;;;;;;;;;;;;;23.79;35.16;100727.13;5068832;28;19924;-79
2022/07/06 12:46:24;;;;;;;;;;;;;;;24.74;33.55;100718.13;5075109;28;20323;-79